This is the latest recevied weather packets stored in our database for station/object KY4GW. If no packets are shown the sender has not sent any weather packets the latest 10 day(s).
| Time | Temp. | Humidity | Pressure | Rain* | Wind** | Luminosity | Snow |
|---|---|---|---|---|---|---|---|
| 1777870618 | 11.11° C | 65% | 1016.9 hPa | 0 mm | - | 0 W/m² | - |
| 1777870318 | 11.11° C | 67% | 1016.9 hPa | 0 mm | - | 0 W/m² | - |
| 1777870016 | 11.67° C | 62% | 1016.9 hPa | 0 mm | - | 0 W/m² | - |
| 1777869713 | 11.67° C | 64% | 1016.9 hPa | 0 mm | - | 0 W/m² | - |
| 1777869410 | 11.67° C | 64% | 1016.9 hPa | 0 mm | - | 0 W/m² | - |
| 1777869107 | 11.67° C | 60% | 1016.9 hPa | 0 mm | - | 0 W/m² | - |
| 1777868804 | 11.67° C | 62% | 1016.9 hPa | 0 mm | - | 0 W/m² | - |
| 1777868500 | 11.67° C | 64% | 1016.9 hPa | 0 mm | - | 0 W/m² | - |
| 1777868196 | 11.67° C | 60% | 1016.9 hPa | 0 mm | - | 0 W/m² | - |
| 1777867893 | 12.22° C | 61% | 1017.3 hPa | 0 mm | - | 0 W/m² | - |
| 1777867590 | 12.22° C | 59% | 1017.3 hPa | 0 mm | - | 0 W/m² | - |
| 1777867287 | 12.22° C | 60% | 1017.3 hPa | 0 mm | - | 0 W/m² | - |
| 1777866983 | 12.78° C | 58% | 1017.3 hPa | 0 mm | - | 0 W/m² | - |
| 1777866680 | 12.78° C | 57% | 1017.3 hPa | 0 mm | - | 0 W/m² | - |
| 1777865773 | 13.33° C | 55% | 1017.6 hPa | 0 mm | - | 0 W/m² | - |
| 1777865470 | 13.33° C | 56% | 1017.6 hPa | 0 mm | - | 0 W/m² | - |
| 1777864561 | 12.78° C | 56% | 1017.6 hPa | 0 mm | - | 0 W/m² | - |
| 1777863650 | 12.22° C | 60% | 1017.6 hPa | 0 mm | - | 0 W/m² | - |
| 1777845465 | 16.67° C | 41% | 1018.3 hPa | 0 mm | - | 66 W/m² | - |
| 1777845162 | 16.67° C | 37% | 1018.3 hPa | 0 mm | - | 67 W/m² | - |
| 1777844557 | 16.67° C | 39% | 1018.3 hPa | 0 mm | - | 66 W/m² | - |
| 1777844255 | 16.67° C | 41% | 1018.3 hPa | 0 mm | - | 69 W/m² | - |
| 1777843952 | 17.22° C | 37% | 1018.3 hPa | 0 mm | - | 69 W/m² | - |
| 1777843649 | 17.22° C | 40% | 1018.6 hPa | 0 mm | - | 69 W/m² | - |
| 1777843346 | 17.22° C | 38% | 1018.6 hPa | 0 mm | - | 70 W/m² | - |
* Rain latest hour (hover to see other rain measurements)
** Current wind speed in m/s (hover to see current wind gust speed)